Time;durP1;ratioP1;P1;durP2;ratioP2;P2;SDS_P1;SDS_P2;PMS_P1;PMS_P2;Temp;Humidity;BMP_temperature;BMP_pressure;BME280_temperature;BME280_humidity;BME280_pressure;Samples;Min_cycle;Max_cycle;Signal;HPM_P1;HPM_P2
2023/11/13 00:01:42;;;;;;;22.90;15.20;;;;;;;4.45;85.40;98310.24;226812;1268;22541;-79
2023/11/13 00:06:51;;;;;;;23.30;16.00;;;;;;;4.39;85.51;98305.98;226880;1274;22537;-79
2023/11/13 00:11:54;;;;;;;23.20;15.40;;;;;;;4.34;85.51;98308.77;226980;1274;22555;-80
2023/11/13 00:16:57;;;;;;;22.30;14.90;;;;;;;4.32;85.61;98318.54;227045;1272;22552;-79
2023/11/13 00:22:00;;;;;;;21.60;14.30;;;;;;;4.33;85.49;98314.33;226828;1275;23031;-79
2023/11/13 00:27:05;;;;;;;18.50;12.10;;;;;;;4.35;85.81;98316.91;227050;1274;22547;-79
2023/11/13 00:32:11;;;;;;;19.80;12.60;;;;;;;4.39;85.37;98319.98;226822;1260;22538;-79
2023/11/13 00:37:14;;;;;;;18.40;11.60;;;;;;;4.45;85.29;98325.60;226821;1269;22553;-79
2023/11/13 00:42:21;;;;;;;17.00;11.80;;;;;;;4.50;85.27;98333.78;227025;1274;22541;-79
2023/11/13 00:47:27;;;;;;;16.90;11.30;;;;;;;4.54;85.44;98337.34;226868;1266;22560;-79
2023/11/13 00:52:30;;;;;;;17.60;10.80;;;;;;;4.58;85.19;98344.64;226991;1269;22586;-78
2023/11/13 00:57:35;;;;;;;13.60;9.60;;;;;;;4.59;85.12;98348.17;226960;1274;22653;-78
2023/11/13 01:02:41;;;;;;;17.00;10.60;;;;;;;4.54;84.76;98345.52;227006;1272;22647;-79
2023/11/13 01:07:44;;;;;;;15.80;10.50;;;;;;;4.49;84.94;98345.95;226886;1272;22955;-79
2023/11/13 01:12:51;;;;;;;16.50;9.90;;;;;;;4.42;84.92;98347.16;227069;1271;24766;-78
2023/11/13 01:17:53;;;;;;;15.30;10.00;;;;;;;4.35;84.93;98348.79;226999;1270;22554;-78
2023/11/13 01:22:56;;;;;;;15.40;10.70;;;;;;;4.31;84.79;98346.55;226785;1253;22573;-77
2023/11/13 01:28:02;;;;;;;13.80;10.10;;;;;;;4.30;84.94;98351.21;226975;1270;22557;-78
2023/11/13 01:33:06;;;;;;;13.00;9.70;;;;;;;4.30;84.82;98345.35;226724;1275;22608;-79
2023/11/13 01:38:10;;;;;;;14.50;10.30;;;;;;;4.30;84.89;98340.48;226790;1271;22543;-79
2023/11/13 01:43:22;;;;;;;15.90;10.80;;;;;;;4.30;84.89;98335.58;226979;1274;22556;-79
2023/11/13 01:48:26;;;;;;;14.80;11.00;;;;;;;4.29;84.95;98333.27;226767;1274;190036;-79
2023/11/13 01:53:28;;;;;;;15.20;10.40;;;;;;;4.27;84.91;98340.02;226873;1273;22536;-78
2023/11/13 01:58:31;;;;;;;15.20;10.90;;;;;;;4.27;84.89;98353.98;226809;1275;22562;-79
2023/11/13 02:03:35;;;;;;;13.90;9.80;;;;;;;4.29;85.08;98363.03;226823;1274;22907;-79
2023/11/13 02:08:38;;;;;;;15.00;9.60;;;;;;;4.30;85.08;98363.98;226997;1274;22529;-78
2023/11/13 02:13:44;;;;;;;11.80;8.80;;;;;;;4.29;84.85;98364.61;226813;1274;22540;-79
2023/11/13 02:18:47;;;;;;;12.90;9.80;;;;;;;4.28;84.93;98359.83;227011;1267;22536;-79
2023/11/13 02:23:52;;;;;;;13.10;9.20;;;;;;;4.28;84.98;98361.77;226875;1266;22571;-79
2023/11/13 02:28:55;;;;;;;10.00;8.50;;;;;;;4.27;84.77;98356.45;226871;1273;22579;-79
2023/11/13 02:33:58;;;;;;;14.20;9.30;;;;;;;4.27;84.99;98355.94;226897;1275;22547;-78
2023/11/13 02:39:03;;;;;;;10.00;8.60;;;;;;;4.28;84.99;98365.09;226894;1269;23280;-79
2023/11/13 02:44:06;;;;;;;10.70;8.80;;;;;;;4.29;85.00;98361.63;226971;1274;22560;-79
2023/11/13 02:49:08;;;;;;;10.80;8.30;;;;;;;4.31;84.99;98353.02;226770;1273;22533;-79
2023/11/13 02:54:10;;;;;;;12.20;8.60;;;;;;;4.34;84.79;98353.78;226843;1273;22534;-79
2023/11/13 02:59:13;;;;;;;9.70;8.10;;;;;;;4.36;84.89;98350.20;226994;1269;22573;-80
2023/11/13 03:04:16;;;;;;;10.50;8.00;;;;;;;4.38;84.85;98348.48;226956;1272;22537;-79
2023/11/13 03:09:22;;;;;;;10.30;7.60;;;;;;;4.42;84.81;98352.98;226940;1274;22536;-78
2023/11/13 03:14:28;;;;;;;10.10;7.10;;;;;;;4.45;84.69;98347.09;226956;1274;22564;-79
2023/11/13 03:19:35;;;;;;;10.10;7.00;;;;;;;4.47;84.89;98344.01;226960;1275;22540;-79
2023/11/13 03:24:38;;;;;;;8.30;6.70;;;;;;;4.50;84.42;98342.15;226983;1274;22536;-79
2023/11/13 03:29:41;;;;;;;8.50;6.90;;;;;;;4.52;84.55;98335.33;226996;1274;22558;-79
2023/11/13 03:34:44;;;;;;;9.00;6.90;;;;;;;4.55;84.37;98343.79;226923;1272;22562;-79
2023/11/13 03:39:47;;;;;;;11.60;6.90;;;;;;;4.57;84.39;98344.35;226963;1275;22557;-78
2023/11/13 03:44:50;;;;;;;9.60;6.80;;;;;;;4.59;84.12;98338.03;227022;1274;25459;-78
2023/11/13 03:49:54;;;;;;;9.70;7.80;;;;;;;4.60;84.10;98338.77;226872;1274;22538;-79
2023/11/13 03:54:56;;;;;;;11.90;8.60;;;;;;;4.60;84.44;98334.14;226815;1275;22536;-77
2023/11/13 03:59:59;;;;;;;10.40;8.00;;;;;;;4.60;84.52;98333.38;226956;1273;22529;-79
2023/11/13 04:05:02;;;;;;;13.80;9.90;;;;;;;4.61;84.03;98334.81;226866;1272;22536;-78
2023/11/13 04:10:12;;;;;;;12.10;9.60;;;;;;;4.62;84.36;98337.77;226913;1273;24241;-78
2023/11/13 04:15:15;;;;;;;14.00;10.00;;;;;;;4.60;83.87;98340.05;226899;1273;22561;-78
2023/11/13 04:20:21;;;;;;;35.50;22.00;;;;;;;4.58;84.02;98336.76;226835;1272;22640;-78
2023/11/13 04:25:32;;;;;;;14.10;10.60;;;;;;;4.57;83.94;98336.56;226868;1274;22547;-79
2023/11/13 04:30:34;;;;;;;11.00;8.20;;;;;;;4.59;84.29;98350.05;227031;1274;22686;-79
2023/11/13 04:35:37;;;;;;;8.60;7.30;;;;;;;4.61;84.32;98364.30;226975;1272;22536;-78
2023/11/13 04:40:40;;;;;;;8.40;7.00;;;;;;;4.61;83.90;98360.10;226952;1275;22941;-78
2023/11/13 04:45:43;;;;;;;8.60;6.90;;;;;;;4.61;84.03;98361.33;226704;1275;22539;-79
2023/11/13 04:50:55;;;;;;;7.30;5.70;;;;;;;4.61;83.79;98368.33;226998;1272;24198;-79
2023/11/13 04:55:58;;;;;;;8.40;5.50;;;;;;;4.60;83.70;98373.86;226881;1272;22544;-79
2023/11/13 05:01:04;;;;;;;8.20;6.00;;;;;;;4.57;83.50;98368.05;226803;1275;25210;-79
2023/11/13 05:06:14;;;;;;;7.20;5.90;;;;;;;4.56;83.43;98385.25;226894;1274;22576;-79
2023/11/13 05:11:25;;;;;;;7.80;5.40;;;;;;;4.58;83.57;98389.08;227001;1272;22540;-78
2023/11/13 05:16:29;;;;;;;6.80;5.40;;;;;;;4.57;83.15;98379.56;226896;1273;22745;-79
2023/11/13 05:21:32;;;;;;;6.20;5.10;;;;;;;4.53;83.08;98381.54;226955;1272;22536;-79
2023/11/13 05:26:35;;;;;;;7.40;5.70;;;;;;;4.51;83.40;98376.36;227020;1272;22536;-79
2023/11/13 05:31:37;;;;;;;6.80;5.50;;;;;;;4.46;83.16;98382.01;227042;1271;22568;-78
2023/11/13 05:36:40;;;;;;;6.60;5.00;;;;;;;4.42;83.58;98386.97;226819;1274;22536;-79
2023/11/13 05:41:43;;;;;;;8.20;5.80;;;;;;;4.38;83.43;98390.98;227035;1271;22540;-79
2023/11/13 05:46:47;;;;;;;7.40;6.00;;;;;;;4.36;83.65;98392.23;226955;1272;24264;-80
2023/11/13 05:51:50;;;;;;;8.60;6.40;;;;;;;4.33;83.53;98385.39;227023;1274;22680;-79
2023/11/13 05:56:52;;;;;;;7.90;6.80;;;;;;;4.27;83.63;98388.98;226841;1271;22536;-77
2023/11/13 06:01:56;;;;;;;10.40;9.10;;;;;;;4.18;83.36;98393.05;226851;1275;22533;-78
2023/11/13 06:07:00;;;;;;;12.50;10.50;;;;;;;4.09;83.60;98394.74;226854;1275;22537;-78
2023/11/13 06:12:04;;;;;;;14.60;10.10;;;;;;;3.98;83.82;98389.08;226900;1275;25230;-78
2023/11/13 06:17:08;;;;;;;11.60;9.80;;;;;;;3.91;83.92;98398.11;226912;1275;22548;-78
2023/11/13 06:22:12;;;;;;;12.40;9.70;;;;;;;3.89;84.05;98407.38;226890;1274;23023;-80
2023/11/13 06:27:14;;;;;;;11.80;9.30;;;;;;;3.92;84.35;98417.52;226919;1270;25243;-78
2023/11/13 06:32:18;;;;;;;11.90;8.20;;;;;;;3.99;84.54;98422.04;226926;1272;22532;-77
2023/11/13 06:37:21;;;;;;;11.60;7.70;;;;;;;4.07;84.31;98435.19;227022;1272;22540;-80
2023/11/13 06:42:24;;;;;;;11.00;7.90;;;;;;;4.15;84.32;98438.86;226763;1275;22547;-79
2023/11/13 06:47:28;;;;;;;14.50;10.50;;;;;;;4.23;84.36;98441.86;226946;1274;22533;-79
2023/11/13 06:52:32;;;;;;;13.90;8.40;;;;;;;4.31;84.39;98446.61;227098;1275;25383;-79
2023/11/13 06:57:34;;;;;;;11.30;8.10;;;;;;;4.39;84.07;98442.53;226961;1274;22491;-79
2023/11/13 07:02:39;;;;;;;11.50;7.90;;;;;;;4.49;84.03;98440.09;226641;1266;25230;-78
2023/11/13 07:07:42;;;;;;;12.20;8.80;;;;;;;4.61;83.98;98438.00;226553;1254;22673;-79
2023/11/13 07:12:45;;;;;;;11.30;8.90;;;;;;;4.72;83.95;98443.34;226389;1262;25330;-79
2023/11/13 07:17:50;;;;;;;13.00;8.30;;;;;;;4.81;83.69;98446.73;226293;1266;22568;-78
2023/11/13 07:22:56;;;;;;;11.70;9.00;;;;;;;4.88;83.08;98451.48;226427;1251;22548;-77
2023/11/13 07:28:02;;;;;;;12.20;9.30;;;;;;;4.97;83.10;98453.38;226183;1256;25166;-79
2023/11/13 07:33:05;;;;;;;11.00;8.30;;;;;;;5.06;83.16;98459.64;226346;1256;22647;-79
2023/11/13 07:38:09;;;;;;;13.00;8.70;;;;;;;5.12;82.70;98461.95;226364;1256;25342;-79
2023/11/13 07:43:11;;;;;;;11.60;9.30;;;;;;;5.21;82.71;98461.99;226456;1272;22542;-80
2023/11/13 07:48:15;;;;;;;11.00;8.40;;;;;;;5.33;82.62;98467.61;226466;1267;22549;-79
2023/11/13 07:53:20;;;;;;;10.70;8.20;;;;;;;5.45;82.21;98471.02;226280;1271;22549;-79
2023/11/13 07:58:23;;;;;;;10.40;8.40;;;;;;;5.53;81.63;98471.52;226225;1260;22902;-79
2023/11/13 08:03:26;;;;;;;11.40;8.00;;;;;;;5.63;81.68;98470.20;226059;1252;22544;-80
2023/11/13 08:08:29;;;;;;;12.20;8.80;;;;;;;5.75;81.22;98472.83;226156;1267;24376;-79
2023/11/13 08:13:34;;;;;;;11.10;8.40;;;;;;;5.84;81.20;98466.24;226226;1259;25268;-80
2023/11/13 08:18:39;;;;;;;12.00;9.10;;;;;;;5.93;80.89;98469.13;226553;1269;22547;-79
2023/11/13 08:23:45;;;;;;;11.10;8.50;;;;;;;5.99;80.44;98470.89;226431;1259;23012;-78
2023/11/13 08:28:47;;;;;;;14.00;8.20;;;;;;;6.00;80.41;98474.27;226375;1263;22532;-78
2023/11/13 08:33:51;;;;;;;11.10;7.70;;;;;;;5.98;79.67;98469.61;226244;1271;24247;-79
2023/11/13 08:38:54;;;;;;;12.40;7.60;;;;;;;5.97;79.88;98463.94;226258;1270;22705;-80
2023/11/13 08:44:03;;;;;;;10.30;7.40;;;;;;;6.00;79.72;98461.55;226387;1269;22646;-80
2023/11/13 08:49:08;;;;;;;11.30;7.10;;;;;;;6.00;79.74;98454.03;225042;1266;22573;-79
2023/11/13 08:54:20;;;;;;;10.70;7.40;;;;;;;6.07;80.01;98448.75;227628;1259;24771;-81
2023/11/13 08:59:22;;;;;;;11.40;6.90;;;;;;;6.15;79.27;98443.85;226365;1256;22571;-80
2023/11/13 09:04:25;;;;;;;10.10;6.30;;;;;;;6.24;78.92;98436.84;226193;1272;22568;-80
2023/11/13 09:09:29;;;;;;;6.00;5.00;;;;;;;6.37;78.95;98435.77;226267;1255;22541;-79
2023/11/13 09:14:34;;;;;;;8.90;6.20;;;;;;;6.50;78.07;98437.11;226724;1270;22539;-82
2023/11/13 09:19:43;;;;;;;8.90;6.00;;;;;;;6.68;77.75;98438.23;226534;1275;22567;-82
2023/11/13 09:24:58;;;;;;;8.50;5.80;;;;;;;6.72;77.47;98439.75;226347;1273;23047;-80
2023/11/13 09:30:04;;;;;;;6.70;5.60;;;;;;;6.75;77.28;98436.46;226534;1275;23249;-82
2023/11/13 09:35:16;;;;;;;13.90;8.30;;;;;;;6.73;77.18;98432.46;226425;1275;22581;-82
2023/11/13 09:40:29;;;;;;;8.90;6.10;;;;;;;6.82;77.17;98430.70;226467;1275;24237;-81
2023/11/13 09:45:34;;;;;;;10.70;6.30;;;;;;;6.87;76.67;98436.84;226583;1259;22683;-81
2023/11/13 09:50:40;;;;;;;9.50;6.40;;;;;;;6.86;76.31;98434.78;226161;1274;22551;-79
2023/11/13 09:55:46;;;;;;;9.70;6.40;;;;;;;6.82;76.33;98422.58;226498;1270;23218;-80
2023/11/13 10:00:56;;;;;;;9.20;6.30;;;;;;;6.74;76.18;98419.00;226301;1274;22892;-80
2023/11/13 10:06:07;;;;;;;10.30;6.20;;;;;;;6.71;75.75;98416.95;226454;1275;22595;-80
2023/11/13 10:11:13;;;;;;;7.30;5.80;;;;;;;6.78;75.87;98419.68;226301;1274;23046;-78
2023/11/13 10:16:23;;;;;;;7.00;5.20;;;;;;;6.84;75.38;98421.40;226535;1263;22548;-78
2023/11/13 10:21:49;;;;;;;11.90;5.30;;;;;;;6.93;74.59;98418.08;226589;1275;22586;-78
2023/11/13 10:26:53;;;;;;;6.40;5.00;;;;;;;7.09;75.18;98420.34;226524;1274;22584;-78
2023/11/13 10:32:32;;;;;;;7.00;4.80;;;;;;;7.20;74.40;98421.38;226520;1275;22536;-79
2023/11/13 10:37:58;;;;;;;7.00;4.60;;;;;;;7.30;73.85;98416.96;226529;1275;22563;-71
2023/11/13 10:43:30;;;;;;;7.80;5.00;;;;;;;7.32;72.53;98416.98;226492;1275;22511;-84
2023/11/13 10:49:01;;;;;;;5.30;4.50;;;;;;;7.39;73.21;98414.77;226700;1273;22551;-84
2023/11/13 10:54:22;;;;;;;6.10;4.10;;;;;;;7.42;72.23;98417.73;225879;1279;22611;-84
2023/11/13 10:59:26;;;;;;;6.10;4.20;;;;;;;7.39;72.34;98418.09;225859;1278;22554;-84
2023/11/13 11:04:33;;;;;;;7.10;4.10;;;;;;;7.42;72.60;98411.95;225959;1272;22835;-83
2023/11/13 11:09:38;;;;;;;6.40;4.20;;;;;;;7.60;71.88;98405.65;225997;1274;22563;-84
2023/11/13 11:14:59;;;;;;;6.40;4.50;;;;;;;7.82;71.71;98397.94;225750;1276;22675;-80
2023/11/13 11:20:40;;;;;;;7.40;4.30;;;;;;;8.33;72.50;98386.67;225696;1278;22564;-79
2023/11/13 11:25:51;;;;;;;;;;;;;;;8.64;70.12;98374.42;225814;1278;23199;-79
2023/11/13 11:30:54;;;;;;;6.10;4.10;;;;;;;8.73;69.97;98372.10;225825;1276;22968;-79
2023/11/13 11:36:00;;;;;;;7.50;4.30;;;;;;;8.80;70.00;98373.52;226146;1273;22564;-79
2023/11/13 11:41:52;;;;;;;4.70;3.50;;;;;;;8.76;69.02;98373.98;226458;1275;22611;-80
2023/11/13 11:46:58;;;;;;;9.90;5.80;;;;;;;8.54;68.71;98363.61;226265;1272;22561;-79
2023/11/13 11:52:12;;;;;;;6.00;3.60;;;;;;;8.26;68.63;98361.64;226508;1271;22565;-81
2023/11/13 11:57:21;;;;;;;4.20;3.00;;;;;;;8.02;68.76;98353.54;226774;1271;22544;-81
2023/11/13 12:02:56;;;;;;;6.60;3.60;;;;;;;7.93;69.27;98352.16;226587;1251;22603;-83
2023/11/13 12:08:21;;;;;;;5.00;2.90;;;;;;;8.02;69.73;98348.16;226128;1276;22570;-83
2023/11/13 12:13:27;;;;;;;3.60;2.50;;;;;;;8.32;69.37;98339.52;226016;1269;22579;-82
2023/11/13 12:18:39;;;;;;;4.70;2.30;;;;;;;8.53;68.97;98336.38;225996;1257;22960;-83
2023/11/13 12:23:52;;;;;;;2.40;1.80;;;;;;;8.62;68.19;98335.38;225968;1276;22571;-82
2023/11/13 12:28:58;;;;;;;6.20;2.20;;;;;;;8.63;67.81;98338.05;226107;1275;24321;-82
2023/11/13 12:34:01;;;;;;;4.40;1.50;;;;;;;8.67;67.58;98330.17;226499;1267;22698;-83
2023/11/13 12:39:18;;;;;;;38.10;4.40;;;;;;;8.63;66.41;98329.72;226481;1267;22549;-86
2023/11/13 12:44:48;;;;;;;4.90;1.80;;;;;;;8.68;67.10;98317.27;226527;1263;22551;-75
2023/11/13 12:50:18;;;;;;;4.30;1.40;;;;;;;8.81;66.01;98321.96;226539;1275;22546;-84
2023/11/13 12:55:29;;;;;;;2.90;1.40;;;;;;;8.95;65.88;98319.63;226572;1273;24252;-83
2023/11/13 13:00:35;;;;;;;2.20;1.20;;;;;;;9.11;66.01;98316.00;226327;1271;25399;-83
2023/11/13 13:05:42;;;;;;;4.80;1.40;;;;;;;9.31;65.67;98311.08;226295;1275;24235;-80
2023/11/13 13:10:51;;;;;;;1.10;0.90;;;;;;;9.49;65.07;98294.95;226719;1267;22643;-84
2023/11/13 13:16:00;;;;;;;2.50;1.40;;;;;;;9.49;63.27;98282.45;226571;1260;25900;-83
2023/11/13 13:21:04;;;;;;;1.10;0.50;;;;;;;9.33;62.13;98268.27;226645;1267;22556;-71
2023/11/13 13:26:10;;;;;;;0.50;0.50;;;;;;;9.20;62.56;98266.60;226691;1264;22570;-85
2023/11/13 13:31:34;;;;;;;1.90;0.80;;;;;;;9.07;62.87;98260.46;226688;1270;22547;-86
2023/11/13 13:36:54;;;;;;;2.10;1.20;;;;;;;8.96;62.30;98261.31;226787;1267;22680;-86
2023/11/13 13:42:06;;;;;;;2.20;0.90;;;;;;;8.80;62.77;98260.85;226360;1267;22715;-86
2023/11/13 13:47:14;;;;;;;2.70;1.30;;;;;;;8.65;63.17;98256.33;225400;1264;1119261;-83
2023/11/13 13:52:20;;;;;;;2.90;2.10;;;;;;;8.53;63.26;98251.20;226462;1261;22539;-85
2023/11/13 13:57:30;;;;;;;3.80;2.10;;;;;;;8.36;64.24;98253.61;226356;1271;22715;-82
2023/11/13 14:02:35;;;;;;;3.60;2.50;;;;;;;8.15;64.21;98260.20;226381;1273;22548;-83
2023/11/13 14:07:38;;;;;;;4.40;2.50;;;;;;;7.97;65.17;98250.64;226319;1260;22546;-80
2023/11/13 14:12:41;;;;;;;7.10;1.90;;;;;;;7.77;65.10;98239.20;226366;1267;22529;-82
2023/11/13 14:17:44;;;;;;;3.30;2.10;;;;;;;7.58;65.76;98238.73;226483;1275;22649;-80
2023/11/13 14:22:47;;;;;;;3.20;2.00;;;;;;;7.38;65.85;98234.91;226511;1267;22571;-81
2023/11/13 14:27:52;;;;;;;3.90;2.40;;;;;;;7.18;66.11;98244.52;226317;1263;22618;-81
2023/11/13 14:32:56;;;;;;;3.30;2.40;;;;;;;6.97;66.65;98231.20;226099;1272;22537;-83
2023/11/13 14:37:59;;;;;;;5.40;3.40;;;;;;;6.78;67.28;98230.38;226607;1272;22550;-84
2023/11/13 14:43:04;;;;;;;6.80;3.60;;;;;;;6.62;67.69;98226.18;226215;1270;23794;-82
2023/11/13 14:48:07;;;;;;;8.80;4.40;;;;;;;6.44;68.12;98220.20;226103;1256;22552;-82
2023/11/13 14:53:10;;;;;;;8.00;4.30;;;;;;;6.26;68.27;98216.48;226107;1267;22537;-81
2023/11/13 14:58:30;;;;;;;8.30;4.30;;;;;;;6.08;68.64;98210.34;226426;1269;22524;-87
2023/11/13 15:03:47;;;;;;;18.40;9.00;;;;;;;5.90;69.28;98211.09;226388;1267;24945;-86
2023/11/13 15:09:07;;;;;;;21.80;9.80;;;;;;;5.75;69.48;98209.67;226584;1274;22466;-83
2023/11/13 15:14:49;;;;;;;21.00;10.00;;;;;;;5.58;69.93;98198.77;226583;1273;22582;-84
2023/11/13 15:20:30;;;;;;;15.80;9.00;;;;;;;5.40;70.13;98193.80;226012;1270;22512;-86
2023/11/13 15:25:38;;;;;;;17.20;9.20;;;;;;;5.29;70.81;98191.95;225805;1278;25878;-86
2023/11/13 15:31:04;;;;;;;20.80;10.90;;;;;;;5.20;71.01;98188.07;225896;1278;24218;-87
2023/11/13 15:36:32;;;;;;;;;;;;;;;;;;;;;
2023/11/13 15:42:12;;;;;;;;;;;;;;;;;;;;;
2023/11/13 15:47:52;;;;;;;22.50;14.50;;;;;;;4.87;72.74;98165.84;226972;1274;22558;-86
2023/11/13 15:53:12;;;;;;;21.30;14.60;;;;;;;4.75;72.55;98154.79;226791;1273;22565;-86
2023/11/13 15:58:34;;;;;;;22.50;14.20;;;;;;;4.62;72.98;98149.90;226606;1260;24247;-86
2023/11/13 16:03:58;;;;;;;20.30;12.60;;;;;;;4.49;73.62;98145.20;226756;1275;22544;-86
2023/11/13 16:09:10;;;;;;;19.50;11.60;;;;;;;4.39;74.26;98138.74;226617;1275;22559;-87
2023/11/13 16:14:33;;;;;;;21.50;13.10;;;;;;;4.31;74.67;98125.38;226840;1275;22541;-85
2023/11/13 16:19:48;;;;;;;21.60;12.90;;;;;;;4.23;75.25;98118.16;226670;1275;23360;-86
2023/11/13 16:25:15;;;;;;;25.60;15.10;;;;;;;4.17;75.60;98114.33;226826;1273;24314;-87
2023/11/13 16:30:25;;;;;;;30.90;19.70;;;;;;;4.12;75.86;98114.87;226779;1275;22538;-85
2023/11/13 16:35:33;;;;;;;37.70;23.00;;;;;;;4.09;76.11;98119.17;226610;1275;24225;-85
2023/11/13 16:40:43;;;;;;;37.10;22.50;;;;;;;4.09;76.21;98120.05;226629;1272;22553;-86
2023/11/13 16:45:50;;;;;;;39.50;23.70;;;;;;;4.16;76.91;98114.47;226607;1275;22547;-85
2023/11/13 16:51:18;;;;;;;;;;;;;;;;;;;;;
2023/11/13 16:56:37;;;;;;;39.80;23.20;;;;;;;4.32;76.97;98104.74;226851;1275;22559;-85
2023/11/13 17:02:05;;;;;;;46.90;26.60;;;;;;;4.38;77.12;98108.60;226513;1275;22583;-85
2023/11/13 17:07:16;;;;;;;44.50;24.90;;;;;;;4.45;77.63;98095.42;226734;1275;22524;-86
2023/11/13 17:12:34;;;;;;;41.50;22.80;;;;;;;4.54;77.60;98100.60;226704;1275;22555;-85
2023/11/13 17:17:44;;;;;;;40.50;25.60;;;;;;;4.63;78.14;98095.66;226818;1275;22551;-86
2023/11/13 17:23:04;;;;;;;47.10;27.80;;;;;;;4.72;78.07;98093.44;226664;1275;22661;-85
2023/11/13 17:28:18;;;;;;;48.40;28.70;;;;;;;4.79;78.21;98081.80;226783;1270;22540;-85
2023/11/13 17:33:29;;;;;;;45.70;27.10;;;;;;;4.86;78.43;98069.67;226788;1275;22564;-84
2023/11/13 17:38:40;;;;;;;46.10;26.60;;;;;;;4.91;78.43;98068.70;226638;1275;22576;-86
2023/11/13 17:43:54;;;;;;;45.10;26.80;;;;;;;4.97;78.77;98054.25;226819;1275;22539;-87
2023/11/13 17:49:45;;;;;;;;;;;;;;;;;;;;;
2023/11/13 17:55:26;;;;;;;44.80;25.80;;;;;;;5.14;78.85;98039.52;226320;1256;24239;-85
2023/11/13 18:00:57;;;;;;;37.70;23.80;;;;;;;5.21;79.17;98032.52;225688;1283;22545;-86
2023/11/13 18:06:35;;;;;;;38.70;23.60;;;;;;;5.27;79.21;98036.71;225553;1283;22500;-86
2023/11/13 18:11:56;;;;;;;37.10;21.90;;;;;;;5.34;79.26;98024.47;225695;1280;22550;-86
2023/11/13 18:17:27;;;;;;;36.90;22.10;;;;;;;5.42;79.09;98009.26;225997;1280;22599;-86
2023/11/13 18:22:44;;;;;;;32.30;21.10;;;;;;;5.51;79.43;97980.45;225931;1280;22646;-87
2023/11/13 18:28:26;;;;;;;35.50;22.30;;;;;;;5.59;78.91;97970.91;225964;1276;22553;-84
2023/11/13 18:33:58;;;;;;;35.90;21.20;;;;;;;5.67;78.96;97964.42;226854;1275;22543;-87
2023/11/13 18:39:27;;;;;;;39.80;23.50;;;;;;;5.75;79.05;97965.58;227037;1275;22543;-85
2023/11/13 18:45:18;;;;;;;33.70;22.20;;;;;;;5.83;79.00;97972.50;226968;1275;24244;-86
2023/11/13 18:51:02;;;;;;;40.20;23.20;;;;;;;5.89;79.26;97971.10;226629;1275;22559;-86
2023/11/13 18:56:21;;;;;;;40.00;23.70;;;;;;;5.92;79.17;97958.33;227030;1274;22542;-86
2023/11/13 19:01:46;;;;;;;38.50;22.30;;;;;;;5.98;79.19;97948.00;227021;1264;25335;-87
2023/11/13 19:07:09;;;;;;;40.90;23.20;;;;;;;6.03;79.31;97935.65;226804;1274;25411;-87
2023/11/13 19:12:37;;;;;;;36.10;22.00;;;;;;;6.07;79.20;97907.72;227161;1274;22577;-86
2023/11/13 19:17:55;;;;;;;35.70;21.20;;;;;;;6.13;79.59;97888.09;226702;1274;22531;-86
2023/11/13 19:23:19;;;;;;;37.10;22.20;;;;;;;6.18;79.21;97880.19;227005;1274;25400;-87
2023/11/13 19:29:04;;;;;;;33.30;21.20;;;;;;;6.22;79.42;97860.23;227151;1274;22537;-87
2023/11/13 19:34:29;;;;;;;;;;;;;;;;;;;;;
2023/11/13 19:39:48;;;;;;;36.80;22.40;;;;;;;6.27;79.54;97871.70;227035;1275;22559;-85
2023/11/13 19:45:21;;;;;;;38.50;22.60;;;;;;;6.30;79.34;97870.82;227052;1275;22551;-85
2023/11/13 19:51:00;;;;;;;33.10;20.00;;;;;;;6.34;79.26;97870.88;226897;1275;25702;-85
2023/11/13 19:56:13;;;;;;;30.60;20.10;;;;;;;6.39;79.11;97857.35;226003;1263;22501;-85
2023/11/13 20:01:41;;;;;;;33.50;20.30;;;;;;;6.43;78.75;97834.34;225780;1280;22558;-86
2023/11/13 20:06:53;;;;;;;30.80;19.70;;;;;;;6.46;79.05;97813.48;225778;1280;22542;-86
2023/11/13 20:12:23;;;;;;;32.20;20.00;;;;;;;6.46;79.16;97801.95;225997;1280;22575;-86
2023/11/13 20:17:45;;;;;;;34.40;20.80;;;;;;;6.47;79.20;97793.64;225522;1284;22918;-86
2023/11/13 20:23:11;;;;;;;34.10;21.50;;;;;;;6.46;78.92;97782.81;225402;1284;23436;-86
2023/11/13 20:28:39;;;;;;;33.40;21.10;;;;;;;6.47;78.77;97770.55;226140;1279;26045;-86
2023/11/13 20:34:21;;;;;;;;;;;;;;;;;;;;;
2023/11/13 20:40:00;;;;;;;31.10;18.40;;;;;;;6.51;79.15;97754.65;226307;1274;22554;-86
2023/11/13 20:45:26;;;;;;;29.20;18.30;;;;;;;6.53;78.99;97744.13;226879;1274;22549;-86
2023/11/13 20:50:56;;;;;;;27.70;18.60;;;;;;;6.58;79.46;97750.02;226847;1275;22562;-86
2023/11/13 20:56:30;;;;;;;31.50;19.60;;;;;;;6.60;79.71;97742.33;226416;1276;23093;-87
2023/11/13 21:01:54;;;;;;;27.60;17.10;;;;;;;6.59;79.79;97735.94;226482;1276;22631;-86
2023/11/13 21:07:51;;;;;;;29.60;18.00;;;;;;;6.55;80.27;97724.03;226494;1261;25602;-85
2023/11/13 21:12:56;;;;;;;26.60;16.50;;;;;;;6.49;80.31;97722.43;226377;1274;22565;-85
2023/11/13 21:18:04;;;;;;;29.40;17.60;;;;;;;6.41;80.76;97716.80;226431;1268;22540;-83
2023/11/13 21:23:13;;;;;;;30.00;17.80;;;;;;;6.30;81.34;97709.16;226845;1275;24201;-82
2023/11/13 21:28:23;;;;;;;35.60;20.60;;;;;;;6.25;81.71;97684.85;226876;1258;22609;-82
2023/11/13 21:33:41;;;;;;;30.10;19.30;;;;;;;6.23;81.93;97659.18;226915;1273;22538;-82
2023/11/13 21:39:02;;;;;;;29.40;19.70;;;;;;;6.23;82.47;97642.67;226972;1274;22550;-83
2023/11/13 21:44:07;;;;;;;32.10;20.60;;;;;;;6.22;82.77;97624.56;226911;1273;24688;-84
2023/11/13 21:49:25;;;;;;;35.20;22.10;;;;;;;6.21;82.67;97593.05;226897;1275;22697;-84
2023/11/13 21:54:30;;;;;;;36.80;21.80;;;;;;;6.22;83.16;97568.04;226987;1274;22539;-84
2023/11/13 22:00:19;;;;;;;27.80;16.70;;;;;;;6.23;83.54;97549.63;226951;1274;22550;-84
2023/11/13 22:05:35;;;;;;;20.30;13.90;;;;;;;6.17;83.56;97552.30;227085;1275;22532;-83
2023/11/13 22:10:44;;;;;;;20.70;14.60;;;;;;;6.09;84.27;97549.16;226921;1274;22560;-82
2023/11/13 22:15:50;;;;;;;21.10;13.50;;;;;;;6.05;84.72;97542.60;226820;1275;22548;-83
2023/11/13 22:20:57;;;;;;;19.00;14.40;;;;;;;6.04;84.84;97522.79;226806;1259;22547;-85
2023/11/13 22:26:27;;;;;;;19.80;14.00;;;;;;;6.03;85.33;97495.02;226843;1274;22618;-84
2023/11/13 22:31:43;;;;;;;19.70;13.40;;;;;;;6.02;85.68;97461.83;226822;1272;22568;-85
2023/11/13 22:36:48;;;;;;;18.40;12.60;;;;;;;6.05;86.06;97471.14;226818;1275;22540;-84
2023/11/13 22:42:10;;;;;;;17.20;12.50;;;;;;;6.04;85.91;97467.09;226824;1274;22544;-85
2023/11/13 22:47:12;;;;;;;16.60;12.60;;;;;;;6.03;86.77;97460.95;226826;1274;22551;-84
2023/11/13 22:52:21;;;;;;;17.00;11.80;;;;;;;6.03;87.21;97449.17;226808;1274;22654;-84
2023/11/13 22:57:33;;;;;;;14.70;11.30;;;;;;;6.01;88.37;97440.77;226801;1271;22550;-84
2023/11/13 23:02:57;;;;;;;15.70;12.10;;;;;;;6.00;88.31;97422.96;226992;1275;22546;-83
2023/11/13 23:08:01;;;;;;;14.50;11.30;;;;;;;6.00;88.42;97402.13;226898;1274;25397;-83
2023/11/13 23:13:07;;;;;;;14.60;11.10;;;;;;;6.02;88.89;97384.60;226795;1256;22611;-82
2023/11/13 23:18:35;;;;;;;14.10;11.00;;;;;;;6.05;89.23;97362.27;226396;1278;24182;-83
2023/11/13 23:23:39;;;;;;;16.10;11.60;;;;;;;6.07;89.31;97366.68;226203;1265;23056;-83
2023/11/13 23:28:56;;;;;;;17.50;12.90;;;;;;;6.11;89.41;97354.13;226198;1278;22539;-81
2023/11/13 23:34:49;;;;;;;15.00;10.60;;;;;;;6.17;89.81;97346.71;226227;1278;25493;-83
2023/11/13 23:39:59;;;;;;;12.20;9.70;;;;;;;6.26;89.88;97339.60;226376;1278;22560;-84
2023/11/13 23:45:09;;;;;;;12.30;9.50;;;;;;;6.36;90.40;97332.59;226410;1278;22596;-83
2023/11/13 23:50:42;;;;;;;13.50;9.80;;;;;;;6.47;90.56;97327.85;226925;1275;22688;-84
2023/11/13 23:55:57;;;;;;;11.00;8.60;;;;;;;6.62;90.98;97337.77;226927;1275;22571;-83
